createdAt,value
2022-12-05T00:01:24.062Z,26.10
2022-12-05T00:03:53.068Z,29.27
2022-12-05T00:06:20.802Z,27.03
2022-12-05T00:08:48.552Z,30.83
2022-12-05T00:11:17.754Z,26.53
2022-12-05T00:13:45.164Z,22.87
2022-12-05T00:16:14.719Z,24.53
2022-12-05T00:18:41.814Z,26.23
2022-12-05T00:21:13.537Z,30.57
2022-12-05T00:23:40.330Z,25.50
2022-12-05T00:26:07.033Z,24.10
2022-12-05T00:28:34.764Z,24.93
2022-12-05T00:31:07.188Z,26.73
2022-12-05T00:33:34.289Z,27.10
2022-12-05T00:36:07.533Z,28.90
2022-12-05T00:38:34.219Z,27.30
2022-12-05T00:41:12.030Z,25.70
2022-12-05T00:43:39.130Z,27.43
2022-12-05T00:46:27.475Z,25.03
2022-12-05T00:48:55.325Z,26.73
2022-12-05T00:51:28.211Z,26.03
2022-12-05T00:53:57.976Z,30.80
2022-12-05T00:56:25.577Z,27.90
2022-12-05T00:58:54.289Z,27.70
2022-12-05T01:01:47.872Z,26.00
2022-12-05T01:04:20.531Z,31.10
2022-12-05T01:06:47.525Z,30.47
2022-12-05T01:09:17.217Z,25.13
2022-12-05T01:11:44.631Z,28.80
2022-12-05T01:14:13.598Z,26.83
2022-12-05T01:16:42.551Z,26.63
2022-12-05T01:19:17.414Z,35.60
2022-12-05T01:21:44.516Z,26.73
2022-12-05T01:24:12.139Z,34.10
2022-12-05T01:26:40.103Z,31.03
2022-12-05T01:29:06.807Z,30.30
2022-12-05T01:31:35.782Z,29.50
2022-12-05T01:34:05.363Z,28.80
2022-12-05T01:36:32.246Z,30.90
2022-12-05T01:38:59.512Z,26.93
2022-12-05T01:41:30.977Z,34.27
2022-12-05T01:44:03.389Z,32.23
2022-12-05T01:46:36.038Z,37.57
2022-12-05T01:49:13.395Z,37.17
2022-12-05T01:51:42.692Z,34.13
2022-12-05T01:54:11.852Z,33.60
2022-12-05T01:56:40.785Z,30.67
2022-12-05T01:59:09.455Z,32.47
2022-12-05T02:01:36.380Z,34.83
2022-12-05T02:04:03.652Z,37.10
2022-12-05T02:06:30.306Z,31.57
2022-12-05T02:08:56.990Z,32.23
2022-12-05T02:11:26.511Z,37.47
2022-12-05T02:14:30.624Z,32.53
2022-12-05T02:17:09.919Z,35.40
2022-12-05T02:20:08.404Z,35.10
2022-12-05T02:22:59.514Z,32.13
2022-12-05T02:25:39.591Z,30.30
2022-12-05T02:28:34.313Z,30.30
2022-12-05T02:31:27.681Z,32.00
2022-12-05T02:34:06.958Z,28.27
2022-12-05T02:36:41.062Z,32.30
2022-12-05T02:39:14.590Z,31.70
2022-12-05T02:41:58.954Z,29.27
2022-12-05T02:44:38.089Z,31.27
2022-12-05T02:47:07.021Z,31.00
2022-12-05T02:49:37.035Z,23.80
2022-12-05T02:52:15.049Z,25.43
2022-12-05T02:54:44.719Z,26.77
2022-12-05T02:57:13.432Z,25.53
2022-12-05T02:59:40.117Z,24.60
2022-12-05T03:02:09.650Z,24.43
2022-12-05T03:04:36.679Z,26.27
2022-12-05T03:07:13.474Z,24.53
2022-12-05T03:09:42.575Z,24.30
2022-12-05T03:12:16.767Z,24.57
2022-12-05T03:14:58.517Z,22.47
2022-12-05T03:17:30.249Z,24.83
2022-12-05T03:20:11.490Z,17.60
2022-12-05T03:22:45.276Z,20.10
2022-12-05T03:25:13.384Z,17.60
2022-12-05T03:28:04.337Z,19.83
2022-12-05T03:30:34.476Z,15.97
2022-12-05T03:33:14.857Z,19.67
2022-12-05T03:35:55.341Z,19.27
2022-12-05T03:38:58.298Z,17.90
2022-12-05T03:41:48.985Z,19.97
2022-12-05T03:44:37.245Z,18.00
2022-12-05T03:47:14.338Z,19.73
2022-12-05T03:49:51.472Z,16.90
2022-12-05T03:52:20.241Z,17.77
2022-12-05T03:54:52.502Z,15.57
2022-12-05T03:57:48.477Z,16.50
2022-12-05T04:00:22.195Z,14.90
2022-12-05T04:03:12.099Z,15.00
2022-12-05T04:05:52.445Z,19.03
2022-12-05T04:08:36.874Z,15.43
2022-12-05T04:11:10.883Z,12.83
2022-12-05T04:13:51.845Z,13.03
2022-12-05T04:17:01.620Z,15.13
2022-12-05T04:20:13.537Z,14.27
2022-12-05T04:22:41.019Z,12.67
2022-12-05T04:25:30.705Z,12.07
2022-12-05T04:28:21.743Z,12.20
2022-12-05T04:31:00.913Z,11.37
2022-12-05T04:33:36.138Z,12.00
2022-12-05T04:36:11.860Z,9.63
2022-12-05T04:38:50.042Z,11.27
2022-12-05T04:41:22.484Z,11.40
2022-12-05T04:43:51.137Z,12.77
2022-12-05T04:46:20.317Z,10.60
2022-12-05T04:48:52.762Z,9.37
2022-12-05T04:51:26.666Z,9.00
2022-12-05T04:54:02.567Z,8.70
2022-12-05T04:56:34.024Z,6.63
2022-12-05T04:59:00.732Z,7.83
2022-12-05T05:01:48.768Z,9.90
2022-12-05T05:04:21.498Z,9.00
2022-12-05T05:06:48.214Z,8.73
2022-12-05T05:09:14.894Z,7.53
2022-12-05T05:11:41.588Z,8.60
2022-12-05T05:14:08.236Z,7.40
2022-12-05T05:16:37.885Z,6.60
2022-12-05T05:19:06.272Z,8.70
2022-12-05T05:21:41.798Z,6.33
2022-12-05T05:24:10.407Z,7.23
2022-12-05T05:26:39.784Z,6.43
2022-12-05T05:29:06.557Z,7.77
2022-12-05T05:31:33.372Z,5.87
2022-12-05T05:34:03.387Z,5.50
2022-12-05T05:36:35.876Z,6.60
2022-12-05T05:39:03.984Z,6.50
2022-12-05T05:41:33.649Z,6.07
2022-12-05T05:44:00.752Z,8.33
2022-12-05T05:46:30.061Z,5.23
2022-12-05T05:48:57.655Z,7.23
2022-12-05T05:51:29.287Z,5.83
2022-12-05T05:54:00.317Z,8.37
2022-12-05T05:56:27.406Z,8.20
2022-12-05T05:59:00.084Z,8.13
2022-12-05T06:01:27.518Z,10.43
2022-12-05T06:03:54.427Z,13.40
2022-12-05T06:06:21.698Z,12.10
2022-12-05T06:08:48.632Z,10.87
2022-12-05T06:11:24.873Z,13.43
2022-12-05T06:13:56.559Z,11.40
2022-12-05T06:16:23.658Z,14.60
2022-12-05T06:18:51.377Z,17.00
2022-12-05T06:21:18.112Z,15.27
2022-12-05T06:23:45.141Z,16.67
2022-12-05T06:26:13.792Z,17.27
2022-12-05T06:28:40.729Z,12.13
2022-12-05T06:31:12.911Z,16.50
2022-12-05T06:33:39.830Z,16.20
2022-12-05T06:36:09.520Z,16.87
2022-12-05T06:38:41.610Z,17.73
2022-12-05T06:41:12.082Z,17.83
2022-12-05T06:43:38.776Z,19.83
2022-12-05T06:46:10.172Z,17.40
2022-12-05T06:48:36.924Z,22.83
2022-12-05T06:51:04.226Z,20.03
2022-12-05T06:53:30.940Z,20.20
2022-12-05T06:56:02.793Z,18.90
2022-12-05T06:58:30.769Z,20.77
2022-12-05T07:01:15.877Z,21.57
2022-12-05T07:03:47.763Z,23.67
2022-12-05T07:06:15.409Z,23.13
2022-12-05T07:08:42.261Z,21.60
2022-12-05T07:11:09.165Z,23.63
2022-12-05T07:13:35.820Z,25.30
2022-12-05T07:16:02.687Z,22.10
2022-12-05T07:18:29.396Z,23.73
2022-12-05T07:21:14.275Z,26.50
2022-12-05T07:23:43.223Z,22.90
2022-12-05T07:26:14.968Z,23.47
2022-12-05T07:28:43.271Z,20.50
2022-12-05T07:31:11.964Z,21.00
2022-12-05T07:33:38.869Z,21.83
2022-12-05T07:36:08.188Z,19.50
2022-12-05T07:38:35.320Z,21.73
2022-12-05T07:41:13.225Z,21.00
2022-12-05T07:43:41.038Z,20.00
2022-12-05T07:46:09.336Z,20.50
2022-12-05T07:48:36.109Z,20.80
2022-12-05T07:51:05.035Z,21.87
2022-12-05T07:53:32.722Z,20.27
2022-12-05T07:56:01.313Z,22.70
2022-12-05T07:58:32.026Z,21.70
2022-12-05T08:01:09.475Z,20.87
2022-12-05T08:03:39.705Z,22.20
2022-12-05T08:06:09.983Z,21.00
2022-12-05T08:08:37.225Z,20.90
2022-12-05T08:11:10.052Z,19.23
2022-12-05T08:13:37.052Z,22.00
2022-12-05T08:16:06.458Z,17.30
2022-12-05T08:18:33.168Z,18.10
2022-12-05T08:21:10.552Z,23.67
2022-12-05T08:23:38.644Z,18.03
2022-12-05T08:26:14.792Z,19.40
2022-12-05T08:28:42.542Z,19.70
2022-12-05T08:31:13.015Z,17.03
2022-12-05T08:33:40.155Z,17.73
2022-12-05T08:36:09.774Z,19.50
2022-12-05T08:38:36.897Z,19.13
2022-12-05T08:41:05.500Z,19.10
2022-12-05T08:43:33.347Z,21.17
2022-12-05T08:46:01.271Z,18.73
2022-12-05T08:48:29.933Z,22.00
2022-12-05T08:50:57.087Z,21.63
2022-12-05T08:53:23.824Z,17.40
2022-12-05T08:55:50.552Z,21.43
2022-12-05T08:58:17.279Z,17.93
2022-12-05T09:00:43.968Z,19.77
2022-12-05T09:03:11.584Z,17.63
2022-12-05T09:05:38.326Z,19.03
2022-12-05T09:08:05.152Z,20.00
2022-12-05T09:10:32.815Z,18.20
2022-12-05T09:12:59.634Z,18.33
2022-12-05T09:15:26.444Z,20.87
2022-12-05T09:17:53.093Z,19.70
2022-12-05T09:20:19.851Z,20.23
2022-12-05T09:22:46.554Z,21.07
2022-12-05T09:25:13.506Z,22.37
2022-12-05T09:27:40.147Z,19.37
2022-12-05T09:30:07.478Z,20.30
2022-12-05T09:32:34.156Z,18.47
2022-12-05T09:35:00.982Z,18.53
2022-12-05T09:37:39.231Z,20.77
2022-12-05T09:40:07.580Z,18.10
2022-12-05T09:42:56.407Z,18.87
2022-12-05T09:45:35.525Z,16.67
2022-12-05T09:48:16.307Z,19.07
2022-12-05T09:50:50.601Z,19.30
2022-12-05T09:53:28.613Z,19.10
2022-12-05T09:55:57.473Z,19.70
2022-12-05T09:58:33.021Z,19.03
2022-12-05T10:01:05.972Z,18.50
2022-12-05T10:04:08.513Z,19.57
2022-12-05T10:06:47.308Z,18.77
2022-12-05T10:09:14.051Z,18.57
2022-12-05T10:11:54.559Z,20.50
2022-12-05T10:14:37.084Z,21.47
2022-12-05T10:17:16.514Z,18.93
2022-12-05T10:19:46.960Z,20.23
2022-12-05T10:22:20.231Z,19.80
2022-12-05T10:24:53.141Z,20.20
2022-12-05T10:27:35.382Z,19.60
2022-12-05T10:30:15.038Z,19.53
2022-12-05T10:33:13.130Z,18.80
2022-12-05T10:35:41.416Z,19.77
2022-12-05T10:38:31.207Z,20.10
2022-12-05T10:41:07.061Z,20.53
2022-12-05T10:43:37.220Z,21.80
2022-12-05T10:46:07.825Z,16.67
2022-12-05T10:48:40.893Z,19.50
2022-12-05T10:51:24.189Z,17.13
2022-12-05T10:53:51.500Z,19.53
2022-12-05T10:56:37.269Z,18.70
2022-12-05T10:59:04.603Z,17.70
2022-12-05T11:01:31.794Z,19.23
2022-12-05T11:04:13.900Z,22.27
2022-12-05T11:07:02.246Z,17.03
2022-12-05T11:09:32.249Z,18.87
2022-12-05T11:12:16.714Z,18.17
2022-12-05T11:15:25.318Z,23.03
2022-12-05T11:17:54.177Z,19.83
2022-12-05T11:20:20.752Z,20.57
2022-12-05T11:22:53.555Z,20.13
2022-12-05T11:25:33.775Z,19.20
2022-12-05T11:28:17.646Z,18.17
2022-12-05T11:31:03.102Z,17.17
2022-12-05T11:33:32.789Z,20.50
2022-12-05T11:36:12.159Z,18.13
2022-12-05T11:38:41.205Z,18.57
2022-12-05T11:41:46.432Z,17.60
2022-12-05T11:44:34.468Z,19.30
2022-12-05T11:47:31.745Z,17.70
2022-12-05T11:50:21.693Z,16.87
2022-12-05T11:53:32.046Z,17.17
2022-12-05T11:56:13.514Z,16.57
2022-12-05T11:58:56.332Z,16.97
2022-12-05T12:02:10.797Z,15.83
2022-12-05T12:04:59.157Z,18.97
2022-12-05T12:07:44.756Z,17.10
2022-12-05T12:10:25.775Z,18.07
2022-12-05T12:13:08.656Z,14.80
2022-12-05T12:15:35.251Z,15.23
2022-12-05T12:18:22.164Z,15.93
2022-12-05T12:21:18.641Z,17.20
2022-12-05T12:24:11.282Z,13.20
2022-12-05T12:27:11.677Z,14.07
2022-12-05T12:30:06.554Z,15.63
2022-12-05T12:32:38.751Z,17.73
2022-12-05T12:35:14.523Z,13.83
2022-12-05T12:37:59.240Z,13.53
2022-12-05T12:41:10.251Z,14.20
2022-12-05T12:43:58.447Z,18.03
2022-12-05T12:46:57.538Z,13.27
2022-12-05T12:49:59.655Z,14.40
2022-12-05T12:52:36.556Z,15.03
2022-12-05T12:55:29.556Z,14.63
2022-12-05T12:58:02.301Z,14.47
2022-12-05T13:00:56.103Z,17.53
2022-12-05T13:03:46.073Z,15.50
2022-12-05T13:06:40.418Z,15.47
2022-12-05T13:09:20.280Z,15.97
2022-12-05T13:11:49.699Z,18.00
2022-12-05T13:14:20.531Z,14.07
2022-12-05T13:16:51.386Z,12.17
2022-12-05T13:19:42.812Z,12.87
2022-12-05T13:22:11.303Z,17.27
2022-12-05T13:24:38.632Z,13.77
2022-12-05T13:27:14.820Z,12.23
2022-12-05T13:29:48.163Z,13.33
2022-12-05T13:32:30.087Z,13.77
2022-12-05T13:35:02.016Z,13.07
2022-12-05T13:37:51.097Z,13.93
2022-12-05T13:41:04.810Z,12.00
2022-12-05T13:43:31.555Z,12.90
2022-12-05T13:46:07.666Z,13.07
2022-12-05T13:48:38.530Z,14.27
2022-12-05T13:51:23.603Z,13.33
2022-12-05T13:54:23.970Z,12.30
2022-12-05T13:57:02.008Z,12.93
2022-12-05T14:00:07.389Z,14.40
2022-12-05T14:02:46.579Z,15.23
2022-12-05T14:05:18.908Z,13.33
2022-12-05T14:07:54.012Z,15.63
2022-12-05T14:10:28.112Z,10.90
2022-12-05T14:12:57.777Z,13.63
2022-12-05T14:15:27.560Z,14.30
2022-12-05T14:18:04.792Z,14.10
2022-12-05T14:20:35.274Z,11.03
2022-12-05T14:23:31.424Z,12.03
2022-12-05T14:26:36.438Z,13.20
2022-12-05T14:29:15.027Z,13.63
2022-12-05T14:32:05.000Z,11.73
2022-12-05T14:34:35.039Z,12.67
2022-12-05T14:37:06.661Z,15.37
2022-12-05T14:39:44.737Z,15.00
2022-12-05T14:42:25.374Z,15.83
2022-12-05T14:44:56.090Z,14.90
2022-12-05T14:47:30.444Z,15.03
2022-12-05T14:50:02.264Z,18.10
2022-12-05T14:52:31.057Z,15.97
2022-12-05T14:55:03.942Z,14.73
2022-12-05T14:57:33.125Z,17.03
2022-12-05T15:00:09.390Z,16.57
2022-12-05T15:02:45.348Z,19.70
2022-12-05T15:05:17.757Z,18.50
2022-12-05T15:07:45.894Z,19.97
2022-12-05T15:10:40.791Z,17.73
2022-12-05T15:13:20.473Z,18.53
2022-12-05T15:15:58.867Z,16.03
2022-12-05T15:18:35.460Z,17.13
2022-12-05T15:21:08.876Z,16.60
2022-12-05T15:23:41.538Z,15.60
2022-12-05T15:29:20.989Z,17.37
2022-12-05T15:31:49.386Z,15.77
2022-12-05T15:34:25.921Z,17.37
2022-12-05T15:37:08.726Z,18.60
2022-12-05T15:39:57.178Z,21.63
2022-12-05T15:42:45.759Z,19.47
2022-12-05T15:45:15.222Z,17.13
2022-12-05T15:47:47.099Z,16.93
2022-12-05T15:50:14.896Z,20.80
2022-12-05T15:52:44.618Z,19.03
2022-12-05T15:55:41.192Z,16.77
2022-12-05T15:58:26.999Z,20.60
2022-12-05T16:01:04.514Z,19.63
2022-12-05T16:03:40.814Z,19.80
2022-12-05T16:06:35.766Z,18.83
2022-12-05T16:09:11.557Z,22.23
2022-12-05T16:11:39.359Z,18.17
2022-12-05T16:14:07.662Z,21.17
2022-12-05T16:16:37.215Z,21.63
2022-12-05T16:19:06.937Z,16.07
2022-12-05T16:21:39.545Z,17.33
2022-12-05T16:24:08.347Z,20.07
2022-12-05T16:26:39.609Z,16.07
2022-12-05T16:29:06.912Z,16.13
2022-12-05T16:31:34.214Z,12.50
2022-12-05T16:34:04.243Z,13.77
2022-12-05T16:36:31.790Z,10.63
2022-12-05T16:39:07.093Z,11.90
2022-12-05T16:41:39.004Z,11.20
2022-12-05T16:44:31.796Z,10.67
2022-12-05T16:46:58.618Z,11.17
2022-12-05T16:49:31.167Z,10.00
2022-12-05T16:52:08.561Z,10.80
2022-12-05T16:54:35.596Z,10.83
2022-12-05T16:57:02.908Z,7.73
2022-12-05T16:59:42.026Z,10.80
2022-12-05T17:02:14.707Z,9.27
2022-12-05T17:04:42.169Z,8.60
2022-12-05T17:07:09.158Z,10.53
2022-12-05T17:09:35.893Z,7.10
2022-12-05T17:12:14.956Z,8.33
2022-12-05T17:14:41.659Z,8.23
2022-12-05T17:17:16.010Z,7.97
2022-12-05T17:19:42.687Z,7.73
2022-12-05T17:22:10.720Z,8.70
2022-12-05T17:24:37.414Z,8.30
2022-12-05T17:27:06.428Z,9.43
2022-12-05T17:29:35.860Z,7.50
2022-12-05T17:32:03.222Z,9.77
2022-12-05T17:34:30.128Z,17.63
2022-12-05T17:36:56.824Z,12.03
2022-12-05T17:39:28.356Z,11.80
2022-12-05T17:41:55.719Z,8.57
2022-12-05T17:44:22.563Z,13.77
2022-12-05T17:46:49.279Z,9.57
2022-12-05T17:49:20.086Z,9.33
2022-12-05T17:54:33.441Z,10.20
2022-12-05T17:57:00.146Z,8.13
2022-12-05T17:59:26.866Z,11.03
2022-12-05T18:01:53.511Z,8.40
2022-12-05T18:04:23.296Z,10.33
2022-12-05T18:06:50.720Z,12.17
2022-12-05T18:09:17.588Z,12.20
2022-12-05T18:11:44.559Z,13.33
2022-12-05T18:14:11.541Z,9.13
2022-12-05T18:16:38.344Z,10.67
2022-12-05T18:19:05.088Z,13.30
2022-12-05T18:21:31.774Z,10.10
2022-12-05T18:23:58.442Z,15.17
2022-12-05T18:26:25.195Z,10.27
2022-12-05T18:28:54.470Z,14.87
2022-12-05T18:31:21.175Z,12.63
2022-12-05T18:33:48.263Z,9.80
2022-12-05T18:36:17.759Z,13.07
2022-12-05T18:38:51.085Z,10.97
2022-12-05T18:41:17.887Z,11.60
2022-12-05T18:43:44.578Z,12.80
2022-12-05T18:46:11.361Z,15.93
2022-12-05T18:48:40.029Z,13.93
2022-12-05T18:51:20.717Z,13.43
2022-12-05T18:53:52.439Z,12.23
2022-12-05T18:56:31.307Z,9.73
2022-12-05T18:58:59.426Z,14.47
2022-12-05T19:01:27.876Z,13.43
2022-12-05T19:03:58.657Z,11.13
2022-12-05T19:06:30.579Z,12.33
2022-12-05T19:09:00.420Z,13.73
2022-12-05T19:11:28.148Z,13.13
2022-12-05T19:14:02.576Z,14.20
2022-12-05T19:16:31.495Z,8.83
2022-12-05T19:19:00.344Z,12.77
2022-12-05T19:21:29.324Z,10.13
2022-12-05T19:23:57.285Z,14.10
2022-12-05T19:26:24.482Z,13.40
2022-12-05T19:28:51.392Z,15.27
2022-12-05T19:31:20.723Z,13.37
2022-12-05T19:33:51.668Z,12.73
2022-12-05T19:36:21.502Z,11.27
2022-12-05T19:38:49.781Z,14.50
2022-12-05T19:41:18.739Z,14.20
2022-12-05T19:43:45.876Z,12.70
2022-12-05T19:46:21.046Z,14.50
2022-12-05T19:48:48.238Z,15.83
2022-12-05T19:51:14.996Z,15.67
2022-12-05T19:53:43.883Z,16.27
2022-12-05T19:56:24.322Z,14.40
2022-12-05T19:58:52.445Z,17.53
2022-12-05T20:01:22.465Z,16.97
2022-12-05T20:03:51.352Z,17.57
2022-12-05T20:06:19.454Z,15.57
2022-12-05T20:08:47.524Z,17.57
2022-12-05T20:11:20.600Z,14.97
2022-12-05T20:13:48.255Z,14.40
2022-12-05T20:16:18.331Z,15.30
2022-12-05T20:18:45.897Z,17.43
2022-12-05T20:21:15.267Z,13.00
2022-12-05T20:23:42.333Z,19.33
2022-12-05T20:26:11.755Z,17.07
2022-12-05T20:28:39.162Z,16.97
2022-12-05T20:31:16.242Z,16.97
2022-12-05T20:33:43.823Z,21.47
2022-12-05T20:36:15.433Z,20.10
2022-12-05T20:38:42.800Z,20.37
2022-12-05T20:41:12.161Z,20.00
2022-12-05T20:43:39.054Z,19.87
2022-12-05T20:46:13.234Z,21.60
2022-12-05T20:48:40.263Z,20.67
2022-12-05T20:51:10.172Z,18.83
2022-12-05T20:53:38.767Z,19.03
2022-12-05T20:56:07.405Z,14.43
2022-12-05T20:58:34.760Z,17.80
2022-12-05T21:01:04.169Z,16.97
2022-12-05T21:03:30.960Z,15.00
2022-12-05T21:05:57.668Z,20.07
2022-12-05T21:08:24.708Z,19.90
2022-12-05T21:10:52.723Z,19.20
2022-12-05T21:13:19.993Z,16.90
2022-12-05T21:15:46.675Z,18.00
2022-12-05T21:18:13.649Z,16.50
2022-12-05T21:20:42.319Z,17.43
2022-12-05T21:23:09.818Z,22.00
2022-12-05T21:25:36.906Z,18.73
2022-12-05T21:28:03.657Z,23.07
2022-12-05T21:30:30.343Z,19.90
2022-12-05T21:32:57.055Z,16.57
2022-12-05T21:35:23.749Z,15.57
2022-12-05T21:37:50.470Z,18.73
2022-12-05T21:40:17.303Z,17.10
2022-12-05T21:42:43.969Z,19.00
2022-12-05T21:45:10.812Z,17.30
2022-12-05T21:47:37.476Z,14.97
2022-12-05T21:50:04.909Z,18.77
2022-12-05T21:52:39.211Z,15.80
2022-12-05T21:55:07.798Z,15.67
2022-12-05T21:57:38.662Z,17.43
2022-12-05T22:00:09.428Z,18.77
2022-12-05T22:02:36.410Z,17.63
2022-12-05T22:05:03.417Z,18.23
2022-12-05T22:07:30.148Z,19.27
2022-12-05T22:09:57.370Z,17.37
2022-12-05T22:12:24.382Z,15.63
2022-12-05T22:14:51.154Z,17.93
2022-12-05T22:17:17.797Z,18.47
2022-12-05T22:19:44.502Z,21.77
2022-12-05T22:22:11.203Z,20.73
2022-12-05T22:24:39.047Z,23.37
2022-12-05T22:27:05.797Z,17.00
2022-12-05T22:29:32.501Z,21.77
2022-12-05T22:31:59.189Z,21.60
2022-12-05T22:34:25.860Z,22.67
2022-12-05T22:36:52.522Z,22.90
2022-12-05T22:39:19.171Z,17.67
2022-12-05T22:41:45.794Z,18.37
2022-12-05T22:44:12.426Z,22.33
2022-12-05T22:46:39.149Z,18.40
2022-12-05T22:49:06.332Z,17.83
2022-12-05T22:51:33.187Z,16.53
2022-12-05T22:54:00.526Z,20.13
2022-12-05T22:56:28.636Z,16.37
2022-12-05T22:58:57.161Z,21.27
2022-12-05T23:01:25.153Z,15.43
2022-12-05T23:03:56.763Z,17.60
2022-12-05T23:06:23.635Z,17.33
2022-12-05T23:08:50.418Z,17.33
2022-12-05T23:11:19.214Z,18.27
2022-12-05T23:13:47.017Z,19.97
2022-12-05T23:16:23.531Z,19.23
2022-12-05T23:18:53.443Z,16.97
2022-12-05T23:21:30.707Z,17.33
2022-12-05T23:24:00.768Z,17.67
2022-12-05T23:26:30.399Z,16.67
2022-12-05T23:28:57.180Z,18.13
2022-12-05T23:31:24.364Z,18.07
2022-12-05T23:33:51.857Z,18.70
2022-12-05T23:36:20.042Z,18.83
2022-12-05T23:38:47.267Z,17.10
2022-12-05T23:41:20.203Z,17.40
2022-12-05T23:43:48.384Z,18.03
2022-12-05T23:46:17.128Z,19.93
2022-12-05T23:48:44.216Z,19.27
2022-12-05T23:51:14.097Z,17.77
2022-12-05T23:53:42.822Z,16.80
2022-12-05T23:56:12.867Z,16.10
2022-12-05T23:58:40.192Z,17.70
